sensor_id;sensor_type;location;lat;lon;timestamp;pressure;altitude;pressure_sealevel;temperature;humidity
54459;BME280;40368;49.350;8.152;2023-03-04T00:01:01;1009.1;;;8.33;46.98
54459;BME280;40368;49.350;8.152;2023-03-04T00:05:58;1009.1;;;8.09;47.76
54459;BME280;40368;49.350;8.152;2023-03-04T00:18:11;1009.2;;;7.95;47.91
54459;BME280;40368;49.350;8.152;2023-03-04T00:23:07;1009.2;;;8.07;47.49
54459;BME280;40368;49.350;8.152;2023-03-04T00:28:04;1009.1;;;7.93;47.56
54459;BME280;40368;49.350;8.152;2023-03-04T00:33:00;1009.2;;;7.81;48.28
54459;BME280;40368;49.350;8.152;2023-03-04T00:37:57;1009.2;;;8.06;47.51
54459;BME280;40368;49.350;8.152;2023-03-04T00:44:08;1009.3;;;8.05;47.56
54459;BME280;40368;49.350;8.152;2023-03-04T00:49:04;1009.2;;;7.95;47.44
54459;BME280;40368;49.350;8.152;2023-03-04T00:54:01;1009.3;;;7.83;48.04
54459;BME280;40368;49.350;8.152;2023-03-04T00:58:57;1009.3;;;7.96;47.63
54459;BME280;40368;49.350;8.152;2023-03-04T01:04:02;1009.3;;;7.94;47.58
54459;BME280;40368;49.350;8.152;2023-03-04T01:08:59;1009.2;;;7.99;47.62
54459;BME280;40368;49.350;8.152;2023-03-04T01:13:55;1009.2;;;8.13;47.24
54459;BME280;40368;49.350;8.152;2023-03-04T01:19:58;1009.2;;;8.13;47.06
54459;BME280;40368;49.350;8.152;2023-03-04T01:26:08;1009.1;;;8.14;47.02
54459;BME280;40368;49.350;8.152;2023-03-04T01:31:05;1009.1;;;7.99;47.38
54459;BME280;40368;49.350;8.152;2023-03-04T01:36:01;1009.1;;;7.92;47.64
54459;BME280;40368;49.350;8.152;2023-03-04T01:47:09;1008.9;;;7.8;47.78
54459;BME280;40368;49.350;8.152;2023-03-04T01:52:07;1008.9;;;7.85;47.69
54459;BME280;40368;49.350;8.152;2023-03-04T01:57:05;1008.9;;;7.91;47.54
54459;BME280;40368;49.350;8.152;2023-03-04T02:01:58;1009;;;7.8;47.67
54459;BME280;40368;49.350;8.152;2023-03-04T02:08:09;1008.9;;;7.67;47.89
54459;BME280;40368;49.350;8.152;2023-03-04T02:19:11;1008.8;;;7.43;48.19
54459;BME280;40368;49.350;8.152;2023-03-04T02:24:06;1008.6;;;7.27;48.29
54459;BME280;40368;49.350;8.152;2023-03-04T02:29:02;1008.7;;;7.2;48.71
54459;BME280;40368;49.350;8.152;2023-03-04T02:33:58;1008.7;;;7.16;48.79
54459;BME280;40368;49.350;8.152;2023-03-04T02:40:09;1008.7;;;7.06;49.02
54459;BME280;40368;49.350;8.152;2023-03-04T02:50:01;1008.7;;;7.03;48.73
54459;BME280;40368;49.350;8.152;2023-03-04T02:54:58;1008.7;;;7.06;48.77
54459;BME280;40368;49.350;8.152;2023-03-04T03:01:08;1008.6;;;7.02;48.8
54459;BME280;40368;49.350;8.152;2023-03-04T03:06:05;1008.6;;;6.84;49.01
54459;BME280;40368;49.350;8.152;2023-03-04T03:11:01;1008.6;;;6.89;48.84
54459;BME280;40368;49.350;8.152;2023-03-04T03:17:04;1008.4;;;6.85;48.94
54459;BME280;40368;49.350;8.152;2023-03-04T03:22:00;1008.5;;;6.93;48.68
54459;BME280;40368;49.350;8.152;2023-03-04T03:28:11;1008.4;;;6.85;48.88
54459;BME280;40368;49.350;8.152;2023-03-04T03:33:08;1008.4;;;6.88;48.87
54459;BME280;40368;49.350;8.152;2023-03-04T03:38:04;1008.4;;;6.91;48.49
54459;BME280;40368;49.350;8.152;2023-03-04T03:43:01;1008.6;;;7.04;48.43
54459;BME280;40368;49.350;8.152;2023-03-04T03:47:57;1008.6;;;6.77;48.82
54459;BME280;40368;49.350;8.152;2023-03-04T03:54:08;1008.7;;;6.72;48.82
54459;BME280;40368;49.350;8.152;2023-03-04T03:59:04;1008.5;;;6.57;49.18
54459;BME280;40368;49.350;8.152;2023-03-04T04:04:01;1008.6;;;6.51;49.53
54459;BME280;40368;49.350;8.152;2023-03-04T04:08:57;1008.7;;;6.38;49.7
54459;BME280;40368;49.350;8.152;2023-03-04T04:15:00;1008.6;;;6.38;49.67
54459;BME280;40368;49.350;8.152;2023-03-04T04:21:10;1008.6;;;6.39;49.53
54459;BME280;40368;49.350;8.152;2023-03-04T04:26:07;1008.8;;;6.3;49.44
54459;BME280;40368;49.350;8.152;2023-03-04T04:31:05;1008.7;;;6.37;49.32
54459;BME280;40368;49.350;8.152;2023-03-04T04:36:00;1008.7;;;6.23;49.45
54459;BME280;40368;49.350;8.152;2023-03-04T04:40:57;1008.7;;;6.26;49.47
54459;BME280;40368;49.350;8.152;2023-03-04T04:47:08;1008.7;;;6.23;49.17
54459;BME280;40368;49.350;8.152;2023-03-04T04:52:04;1008.7;;;6.2;49.37
54459;BME280;40368;49.350;8.152;2023-03-04T04:57:00;1008.8;;;6.13;49.6
54459;BME280;40368;49.350;8.152;2023-03-04T05:03:11;1008.7;;;6.23;49.34
54459;BME280;40368;49.350;8.152;2023-03-04T05:08:08;1008.8;;;6.03;49.53
54459;BME280;40368;49.350;8.152;2023-03-04T05:11:58;1008.8;;;6.06;49.49
54459;BME280;40368;49.350;8.152;2023-03-04T05:15:41;1008.8;;;6.04;49.27
54459;BME280;40368;49.350;8.152;2023-03-04T05:18:01;1008.8;;;6.02;49.29
54459;BME280;40368;49.350;8.152;2023-03-04T05:22:57;1008.9;;;5.73;50.11
54459;BME280;40368;49.350;8.152;2023-03-04T05:29:08;1008.8;;;5.68;50
54459;BME280;40368;49.350;8.152;2023-03-04T05:34:04;1008.8;;;5.63;50.25
54459;BME280;40368;49.350;8.152;2023-03-04T05:39:01;1008.8;;;5.56;50.24
54459;BME280;40368;49.350;8.152;2023-03-04T05:43:57;1008.8;;;5.62;50.16
54459;BME280;40368;49.350;8.152;2023-03-04T05:50:08;1008.9;;;5.49;50.34
54459;BME280;40368;49.350;8.152;2023-03-04T05:55:05;1008.8;;;5.42;50.61
54459;BME280;40368;49.350;8.152;2023-03-04T06:00:02;1008.9;;;5.44;50.15
54459;BME280;40368;49.350;8.152;2023-03-04T06:04:58;1008.9;;;5.47;50.38
54459;BME280;40368;49.350;8.152;2023-03-04T06:11:08;1008.9;;;5.34;50.49
54459;BME280;40368;49.350;8.152;2023-03-04T06:16:05;1008.9;;;5.39;50.44
54459;BME280;40368;49.350;8.152;2023-03-04T06:22:08;1009;;;5.4;50.22
54459;BME280;40368;49.350;8.152;2023-03-04T06:27:04;1008.9;;;5.38;50.2
54459;BME280;40368;49.350;8.152;2023-03-04T06:32:00;1009.1;;;5.64;49.99
54459;BME280;40368;49.350;8.152;2023-03-04T06:38:11;1009.2;;;5.59;50.35
54459;BME280;40368;49.350;8.152;2023-03-04T06:43:08;1009.2;;;5.62;50.15
54459;BME280;40368;49.350;8.152;2023-03-04T06:48:04;1009.2;;;5.52;50.49
54459;BME280;40368;49.350;8.152;2023-03-04T06:53:01;1009.3;;;5.67;50.42
54459;BME280;40368;49.350;8.152;2023-03-04T06:57:57;1009.3;;;5.71;50.18
54459;BME280;40368;49.350;8.152;2023-03-04T07:04:08;1009.3;;;5.74;50.18
54459;BME280;40368;49.350;8.152;2023-03-04T07:09:04;1009.4;;;5.72;50.43
54459;BME280;40368;49.350;8.152;2023-03-04T07:14:01;1009.4;;;5.88;50.02
54459;BME280;40368;49.350;8.152;2023-03-04T07:20:04;1009.5;;;6;49.83
54459;BME280;40368;49.350;8.152;2023-03-04T07:25:00;1009.6;;;6.08;49.6
54459;BME280;40368;49.350;8.152;2023-03-04T07:29:56;1009.5;;;6.03;50.04
54459;BME280;40368;49.350;8.152;2023-03-04T07:36:07;1009.6;;;5.96;50.43
54459;BME280;40368;49.350;8.152;2023-03-04T07:41:04;1009.5;;;5.97;50.5
54459;BME280;40368;49.350;8.152;2023-03-04T07:46:00;1009.6;;;6.21;50.16
54459;BME280;40368;49.350;8.152;2023-03-04T07:51:05;1009.7;;;6.31;50.29
54459;BME280;40368;49.350;8.152;2023-03-04T07:57:07;1009.7;;;6.51;49.33
54459;BME280;40368;49.350;8.152;2023-03-04T08:02:04;1009.5;;;6.49;49.88
54459;BME280;40368;49.350;8.152;2023-03-04T08:07:00;1009.7;;;6.61;49.39
54459;BME280;40368;49.350;8.152;2023-03-04T08:13:11;1009.7;;;6.73;49.67
54459;BME280;40368;49.350;8.152;2023-03-04T08:18:00;1009.7;;;6.88;49.2
54459;BME280;40368;49.350;8.152;2023-03-04T08:24:10;1009.7;;;6.86;49.34
54459;BME280;40368;49.350;8.152;2023-03-04T08:29:07;1009.7;;;6.94;48.38
54459;BME280;40368;49.350;8.152;2023-03-04T08:34:04;1009.7;;;7.11;48.79
54459;BME280;40368;49.350;8.152;2023-03-04T08:39:00;1009.6;;;7;48.72
54459;BME280;40368;49.350;8.152;2023-03-04T08:45:10;1009.6;;;7.05;48.89
54459;BME280;40368;49.350;8.152;2023-03-04T08:50:08;1009.7;;;6.94;49.1
54459;BME280;40368;49.350;8.152;2023-03-04T08:55:04;1009.7;;;7.13;49.31
54459;BME280;40368;49.350;8.152;2023-03-04T09:00:00;1009.7;;;7.18;48.83
54459;BME280;40368;49.350;8.152;2023-03-04T09:06:12;1009.6;;;7.17;49.24
54459;BME280;40368;49.350;8.152;2023-03-04T09:11:07;1009.6;;;7.45;48.44
54459;BME280;40368;49.350;8.152;2023-03-04T09:16:07;1009.5;;;7.4;48.58
54459;BME280;40368;49.350;8.152;2023-03-04T09:17:26;1009.6;;;7.43;48.4
54459;BME280;40368;49.350;8.152;2023-03-04T09:21:00;1009.6;;;7.54;47.92
54459;BME280;40368;49.350;8.152;2023-03-04T09:25:57;1009.6;;;7.67;48.16
54459;BME280;40368;49.350;8.152;2023-03-04T09:32:07;1009.6;;;7.77;47.09
54459;BME280;40368;49.350;8.152;2023-03-04T09:37:04;1009.5;;;7.71;47.83
54459;BME280;40368;49.350;8.152;2023-03-04T09:42:01;1009.7;;;7.87;46.91
54459;BME280;40368;49.350;8.152;2023-03-04T09:48:12;1009.7;;;7.97;47.4
54459;BME280;40368;49.350;8.152;2023-03-04T09:53:12;1009.8;;;7.97;47.28
54459;BME280;40368;49.350;8.152;2023-03-04T09:58:06;1009.7;;;8.01;46.75
54459;BME280;40368;49.350;8.152;2023-03-04T10:03:04;1009.8;;;8.06;47
54459;BME280;40368;49.350;8.152;2023-03-04T10:07:58;1009.8;;;8.17;46.84
54459;BME280;40368;49.350;8.152;2023-03-04T10:14:14;1009.9;;;8.28;46.15
54459;BME280;40368;49.350;8.152;2023-03-04T10:20:11;1009.8;;;8.26;46.44
54459;BME280;40368;49.350;8.152;2023-03-04T10:25:14;1009.8;;;8.08;47.04
54459;BME280;40368;49.350;8.152;2023-03-04T10:30:05;1009.8;;;8.01;47.24
54459;BME280;40368;49.350;8.152;2023-03-04T10:35:00;1009.8;;;8.1;47.28
54459;BME280;40368;49.350;8.152;2023-03-04T10:41:11;1009.8;;;8.09;47.05
54459;BME280;40368;49.350;8.152;2023-03-04T10:46:09;1009.7;;;8.24;46.72
54459;BME280;40368;49.350;8.152;2023-03-04T10:51:12;1009.6;;;8.24;46.55
54459;BME280;40368;49.350;8.152;2023-03-04T10:56:00;1009.6;;;8.39;46.26
54459;BME280;40368;49.350;8.152;2023-03-04T11:02:14;1009.6;;;8.39;46.18
54459;BME280;40368;49.350;8.152;2023-03-04T11:07:08;1009.5;;;8.33;46.77
54459;BME280;40368;49.350;8.152;2023-03-04T11:12:08;1009.4;;;8.31;47.05
54459;BME280;40368;49.350;8.152;2023-03-04T11:23:04;1009.4;;;8.62;46.54
54459;BME280;40368;49.350;8.152;2023-03-04T11:28:00;1009.3;;;8.74;46.21
54459;BME280;40368;49.350;8.152;2023-03-04T11:34:12;1009.3;;;8.99;45.68
54459;BME280;40368;49.350;8.152;2023-03-04T11:44:04;1009.2;;;8.95;45.67
54459;BME280;40368;49.350;8.152;2023-03-04T11:49:04;1009.2;;;9.17;45.4
54459;BME280;40368;49.350;8.152;2023-03-04T11:55:17;1009.1;;;9.32;45.08
54459;BME280;40368;49.350;8.152;2023-03-04T12:00:15;1009;;;9.35;44.84
54459;BME280;40368;49.350;8.152;2023-03-04T12:05:09;1008.9;;;9.5;44.55
54459;BME280;40368;49.350;8.152;2023-03-04T12:10:02;1009;;;9.79;44.16
54459;BME280;40368;49.350;8.152;2023-03-04T12:16:15;1008.9;;;9.92;43.94
54459;BME280;40368;49.350;8.152;2023-03-04T12:18:42;1008.9;;;9.89;43.75
54459;BME280;40368;49.350;8.152;2023-03-04T12:21:03;1008.9;;;9.83;44.04
54459;BME280;40368;49.350;8.152;2023-03-04T12:27:13;1008.8;;;9.8;43.58
54459;BME280;40368;49.350;8.152;2023-03-04T12:32:08;1008.7;;;9.76;43.9
54459;BME280;40368;49.350;8.152;2023-03-04T12:37:08;1008.6;;;9.92;43.61
54459;BME280;40368;49.350;8.152;2023-03-04T12:42:03;1008.6;;;9.97;43.55
54459;BME280;40368;49.350;8.152;2023-03-04T12:48:13;1008.5;;;9.97;43.54
54459;BME280;40368;49.350;8.152;2023-03-04T12:53:09;1008.5;;;9.99;43.69
54459;BME280;40368;49.350;8.152;2023-03-04T12:58:03;1008.5;;;10.26;42.9
54459;BME280;40368;49.350;8.152;2023-03-04T13:03:02;1008.5;;;10.35;43.17
54459;BME280;40368;49.350;8.152;2023-03-04T13:09:13;1008.5;;;10.29;42.76
54459;BME280;40368;49.350;8.152;2023-03-04T13:14:07;1008.3;;;10.52;43.02
54459;BME280;40368;49.350;8.152;2023-03-04T13:18:55;1008.3;;;10.68;42.36
54459;BME280;40368;49.350;8.152;2023-03-04T13:25:46;1008.4;;;10.61;42.69
54459;BME280;40368;49.350;8.152;2023-03-04T13:29:29;1008.3;;;10.71;42.57
54459;BME280;40368;49.350;8.152;2023-03-04T13:35:45;1008.3;;;10.7;42.09
54459;BME280;40368;49.350;8.152;2023-03-04T13:40:23;1008.1;;;10.47;42.55
54459;BME280;40368;49.350;8.152;2023-03-04T13:45:00;1008.2;;;10.53;42.72
54459;BME280;40368;49.350;8.152;2023-03-04T13:56:10;1008.1;;;10.9;42.15
54459;BME280;40368;49.350;8.152;2023-03-04T14:01:04;1008;;;10.59;42.09
54459;BME280;40368;49.350;8.152;2023-03-04T14:06:09;1008.1;;;10.46;42.56
54459;BME280;40368;49.350;8.152;2023-03-04T14:10:57;1008;;;10.51;43.5
54459;BME280;40368;49.350;8.152;2023-03-04T14:17:08;1007.9;;;10.8;41.79
54459;BME280;40368;49.350;8.152;2023-03-04T14:23:22;1008;;;10.96;42.78
54459;BME280;40368;49.350;8.152;2023-03-04T14:28:09;1008;;;10.97;41.44
54459;BME280;40368;49.350;8.152;2023-03-04T14:33:05;1007.8;;;10.86;42.75
54459;BME280;40368;49.350;8.152;2023-03-04T14:38:01;1007.8;;;10.81;42.13
54459;BME280;40368;49.350;8.152;2023-03-04T14:44:13;1007.8;;;10.6;42.52
54459;BME280;40368;49.350;8.152;2023-03-04T14:49:09;1007.8;;;10.51;42.99
54459;BME280;40368;49.350;8.152;2023-03-04T14:54:04;1007.8;;;10.55;42.63
54459;BME280;40368;49.350;8.152;2023-03-04T14:59:00;1007.7;;;10.63;43.33
54459;BME280;40368;49.350;8.152;2023-03-04T15:05:15;1007.6;;;10.69;42.56
54459;BME280;40368;49.350;8.152;2023-03-04T15:10:09;1007.6;;;10.63;42.8
54459;BME280;40368;49.350;8.152;2023-03-04T15:15:04;1007.4;;;10.43;42.71
54459;BME280;40368;49.350;8.152;2023-03-04T15:19:57;1007.4;;;10.61;43.13
54459;BME280;40368;49.350;8.152;2023-03-04T15:26:03;1007.4;;;10.55;43.03
54459;BME280;40368;49.350;8.152;2023-03-04T15:30:59;1007.4;;;10.51;43.02
54459;BME280;40368;49.350;8.152;2023-03-04T15:37:10;1007.4;;;10.5;43.09
54459;BME280;40368;49.350;8.152;2023-03-04T15:42:07;1007.4;;;10.37;43.44
54459;BME280;40368;49.350;8.152;2023-03-04T15:47:03;1007.3;;;10.45;43.73
54459;BME280;40368;49.350;8.152;2023-03-04T15:52:00;1007.3;;;10.46;43.41
54459;BME280;40368;49.350;8.152;2023-03-04T15:58:10;1007.3;;;10.64;43.13
54459;BME280;40368;49.350;8.152;2023-03-04T16:03:10;1007.3;;;10.58;43.16
54459;BME280;40368;49.350;8.152;2023-03-04T16:08:03;1007.2;;;10.32;43.41
54459;BME280;40368;49.350;8.152;2023-03-04T16:13:00;1007.3;;;10.14;43.82
54459;BME280;40368;49.350;8.152;2023-03-04T16:19:11;1007.2;;;10.09;43.79
54459;BME280;40368;49.350;8.152;2023-03-04T16:20:26;1007.3;;;10.09;44.01
54459;BME280;40368;49.350;8.152;2023-03-04T16:30:11;1007.2;;;10.21;43.91
54459;BME280;40368;49.350;8.152;2023-03-04T16:35:06;1007.2;;;10.27;44.07
54459;BME280;40368;49.350;8.152;2023-03-04T16:40:03;1007.3;;;10.41;43.8
54459;BME280;40368;49.350;8.152;2023-03-04T16:44:59;1007.2;;;10.37;43.66
54459;BME280;40368;49.350;8.152;2023-03-04T16:51:11;1007.2;;;10.32;43.72
54459;BME280;40368;49.350;8.152;2023-03-04T16:56:10;1007.2;;;10.1;44.24
54459;BME280;40368;49.350;8.152;2023-03-04T17:01:03;1007.3;;;10.02;44.68
54459;BME280;40368;49.350;8.152;2023-03-04T17:05:59;1007.2;;;9.97;44.5
54459;BME280;40368;49.350;8.152;2023-03-04T17:12:11;1007.2;;;10.04;44.59
54459;BME280;40368;49.350;8.152;2023-03-04T17:17:07;1007.3;;;10.41;44.52
54459;BME280;40368;49.350;8.152;2023-03-04T17:20:49;1007.3;;;10.53;44.01
54459;BME280;40368;49.350;8.152;2023-03-04T17:28:06;1007.3;;;10.69;43.7
54459;BME280;40368;49.350;8.152;2023-03-04T17:33:10;1007.4;;;10.22;44.21
54459;BME280;40368;49.350;8.152;2023-03-04T17:38:07;1007.3;;;9.18;46.53
54459;BME280;40368;49.350;8.152;2023-03-04T17:43:03;1007.3;;;8.87;47.49
54459;BME280;40368;49.350;8.152;2023-03-04T17:48:00;1007.2;;;9.27;46.97
54459;BME280;40368;49.350;8.152;2023-03-04T17:54:11;1007.1;;;9.63;45.89
54459;BME280;40368;49.350;8.152;2023-03-04T17:59:08;1007.2;;;9.81;45.35
54459;BME280;40368;49.350;8.152;2023-03-04T18:04:04;1007.2;;;9.97;45.31
54459;BME280;40368;49.350;8.152;2023-03-04T18:09:00;1007.1;;;10.01;44.89
54459;BME280;40368;49.350;8.152;2023-03-04T18:13:57;1007.2;;;9.34;46.57
54459;BME280;40368;49.350;8.152;2023-03-04T18:26:10;1006.9;;;9.68;45.8
54459;BME280;40368;49.350;8.152;2023-03-04T18:31:06;1006.8;;;9.81;45.69
54459;BME280;40368;49.350;8.152;2023-03-04T18:36:04;1006.8;;;9.68;45.85
54459;BME280;40368;49.350;8.152;2023-03-04T18:41:00;1006.7;;;9.8;45.67
54459;BME280;40368;49.350;8.152;2023-03-04T18:47:10;1006.8;;;9.89;45.68
54459;BME280;40368;49.350;8.152;2023-03-04T18:52:07;1006.7;;;9.93;45.35
54459;BME280;40368;49.350;8.152;2023-03-04T18:57:05;1006.7;;;9.91;45.3
54459;BME280;40368;49.350;8.152;2023-03-04T19:08:10;1006.6;;;9.68;45.89
54459;BME280;40368;49.350;8.152;2023-03-04T19:13:07;1006.6;;;9.6;46.14
54459;BME280;40368;49.350;8.152;2023-03-04T19:18:03;1006.7;;;9.59;46.31
54459;BME280;40368;49.350;8.152;2023-03-04T19:21:46;1006.7;;;9.77;45.88
54459;BME280;40368;49.350;8.152;2023-03-04T19:29:02;1006.8;;;9.85;45.63
54459;BME280;40368;49.350;8.152;2023-03-04T19:33:59;1006.9;;;9.75;45.74
54459;BME280;40368;49.350;8.152;2023-03-04T19:40:10;1006.8;;;9.77;45.7
54459;BME280;40368;49.350;8.152;2023-03-04T19:45:06;1006.8;;;9.71;45.82
54459;BME280;40368;49.350;8.152;2023-03-04T19:50:03;1006.7;;;9.63;46.21
54459;BME280;40368;49.350;8.152;2023-03-04T19:54:59;1006.7;;;9.55;46.26
54459;BME280;40368;49.350;8.152;2023-03-04T20:01:18;1006.7;;;9.55;46.45
54459;BME280;40368;49.350;8.152;2023-03-04T20:03:38;1006.7;;;9.56;46.25
54459;BME280;40368;49.350;8.152;2023-03-04T20:11:05;1006.5;;;9.68;46.27
54459;BME280;40368;49.350;8.152;2023-03-04T20:15:59;1006.5;;;9.89;45.7
54459;BME280;40368;49.350;8.152;2023-03-04T20:22:10;1006.5;;;10.01;45.45
54459;BME280;40368;49.350;8.152;2023-03-04T20:27:07;1006.5;;;9.97;45.42
54459;BME280;40368;49.350;8.152;2023-03-04T20:38:06;1006.5;;;9.78;45.91
54459;BME280;40368;49.350;8.152;2023-03-04T20:43:02;1006.5;;;9.82;45.82
54459;BME280;40368;49.350;8.152;2023-03-04T20:47:59;1006.5;;;9.75;45.83
54459;BME280;40368;49.350;8.152;2023-03-04T20:54:09;1006.5;;;9.66;46.16
54459;BME280;40368;49.350;8.152;2023-03-04T20:55:23;1006.5;;;9.68;46.3
54459;BME280;40368;49.350;8.152;2023-03-04T20:59:07;1006.5;;;9.77;45.86
54459;BME280;40368;49.350;8.152;2023-03-04T21:04:03;1006.5;;;9.87;45.82
54459;BME280;40368;49.350;8.152;2023-03-04T21:09:00;1006.4;;;9.91;45.65
54459;BME280;40368;49.350;8.152;2023-03-04T21:15:10;1006.4;;;9.78;45.76
54459;BME280;40368;49.350;8.152;2023-03-04T21:20:07;1006.4;;;9.8;45.74
54459;BME280;40368;49.350;8.152;2023-03-04T21:25:03;1006.3;;;9.7;46.17
54459;BME280;40368;49.350;8.152;2023-03-04T21:29:59;1006.4;;;9.76;45.93
54459;BME280;40368;49.350;8.152;2023-03-04T21:36:10;1006.3;;;9.85;45.73
54459;BME280;40368;49.350;8.152;2023-03-04T21:41:15;1006.3;;;10.18;45
54459;BME280;40368;49.350;8.152;2023-03-04T21:44:57;1006.3;;;10.29;44.83
54459;BME280;40368;49.350;8.152;2023-03-04T21:51:09;1006.3;;;10.12;45.08
54459;BME280;40368;49.350;8.152;2023-03-04T21:57:10;1006.3;;;9.83;45.67
54459;BME280;40368;49.350;8.152;2023-03-04T22:02:08;1006.3;;;9.89;45.62
54459;BME280;40368;49.350;8.152;2023-03-04T22:07:03;1006.3;;;9.68;46.22
54459;BME280;40368;49.350;8.152;2023-03-04T22:12:00;1006.2;;;9.62;46.7
54459;BME280;40368;49.350;8.152;2023-03-04T22:18:11;1006.3;;;9.5;47.86
54459;BME280;40368;49.350;8.152;2023-03-04T22:23:07;1006.2;;;9.7;48.03
54459;BME280;40368;49.350;8.152;2023-03-04T22:28:04;1006.1;;;9.77;48.51
54459;BME280;40368;49.350;8.152;2023-03-04T22:33:01;1006.1;;;9.79;48.08
54459;BME280;40368;49.350;8.152;2023-03-04T22:39:12;1006;;;9.89;47.43
54459;BME280;40368;49.350;8.152;2023-03-04T22:44:07;1006.1;;;9.95;47.17
54459;BME280;40368;49.350;8.152;2023-03-04T22:49:05;1006;;;10.02;46.66
54459;BME280;40368;49.350;8.152;2023-03-04T23:00:03;1006.1;;;10.17;46.2
54459;BME280;40368;49.350;8.152;2023-03-04T23:04:59;1006;;;10.39;45.81
54459;BME280;40368;49.350;8.152;2023-03-04T23:11:11;1006;;;10.32;45.55
54459;BME280;40368;49.350;8.152;2023-03-04T23:16:07;1006;;;10.18;45.82
54459;BME280;40368;49.350;8.152;2023-03-04T23:21:04;1006;;;10.18;45.79
54459;BME280;40368;49.350;8.152;2023-03-04T23:26:00;1006;;;10.18;45.84
54459;BME280;40368;49.350;8.152;2023-03-04T23:32:10;1005.9;;;10.07;45.98
54459;BME280;40368;49.350;8.152;2023-03-04T23:37:07;1006;;;10.01;46.2
54459;BME280;40368;49.350;8.152;2023-03-04T23:42:03;1005.9;;;9.89;46.56
54459;BME280;40368;49.350;8.152;2023-03-04T23:47:00;1005.9;;;9.8;46.81
54459;BME280;40368;49.350;8.152;2023-03-04T23:53:10;1005.9;;;9.68;46.97
